Time;durP1;ratioP1;P1;durP2;ratioP2;P2;SDS_P1;SDS_P2;PMS_P1;PMS_P2;Temp;Humidity;BMP_temperature;BMP_pressure;BME280_temperature;BME280_humidity;BME280_pressure;Samples;Min_cycle;Max_cycle;Signal;HPM_P1;HPM_P2
2023/07/25 00:00:25;;;;;;;0.32;0.32;;;12.90;99.90;;;;;;5003161;28;20033;-71
2023/07/25 00:02:51;;;;;;;0.50;0.50;;;12.90;99.90;;;;;;5003947;28;20512;-71
2023/07/25 00:05:16;;;;;;;0.30;0.30;;;12.70;99.90;;;;;;5007146;28;20512;-72
2023/07/25 00:07:42;;;;;;;0.28;0.28;;;12.80;99.90;;;;;;5004975;28;20046;-73
2023/07/25 00:10:08;;;;;;;0.40;0.40;;;12.70;99.90;;;;;;5008093;28;20046;-71
2023/07/25 00:12:35;;;;;;;0.60;0.60;;;12.60;99.90;;;;;;4987644;28;20129;-72
2023/07/25 00:15:01;;;;;;;0.30;0.30;;;12.40;99.90;;;;;;5005382;28;20057;-72
2023/07/25 00:17:27;;;;;;;0.40;0.40;;;12.50;99.90;;;;;;5009201;28;20042;-72
2023/07/25 00:19:52;;;;;;;0.70;0.70;;;12.50;99.90;;;;;;5009250;28;20034;-72
2023/07/25 00:22:18;;;;;;;0.40;0.40;;;12.60;99.90;;;;;;5006522;28;20170;-72
2023/07/25 00:24:44;;;;;;;0.52;0.52;;;12.50;99.90;;;;;;5010029;28;20042;-72
2023/07/25 00:27:10;;;;;;;0.40;0.40;;;;;;;;;;5008565;28;20133;-72
2023/07/25 00:29:35;;;;;;;0.50;0.50;;;12.50;99.90;;;;;;4989529;28;20038;-72
2023/07/25 00:32:01;;;;;;;0.63;0.50;;;12.70;99.90;;;;;;4990098;28;20077;-72
2023/07/25 00:34:26;;;;;;;0.43;0.43;;;12.40;99.90;;;;;;5003277;28;20130;-72
2023/07/25 00:36:52;;;;;;;0.43;0.43;;;12.40;99.90;;;;;;5009613;28;20540;-72
2023/07/25 00:39:18;;;;;;;0.93;0.82;;;12.40;99.90;;;;;;5007167;28;20397;-72
2023/07/25 00:41:43;;;;;;;1.40;0.50;;;12.40;99.90;;;;;;5011787;28;20493;-71
2023/07/25 00:44:09;;;;;;;0.95;0.95;;;12.50;99.90;;;;;;5017994;28;20093;-72
2023/07/25 00:46:35;;;;;;;0.57;0.57;;;12.30;99.90;;;;;;5005108;28;20060;-72
2023/07/25 00:49:01;;;;;;;0.60;0.55;;;12.40;99.90;;;;;;5013002;28;20135;-72
2023/07/25 00:51:28;;;;;;;0.40;0.40;;;12.50;99.90;;;;;;5011667;28;20049;-71
2023/07/25 00:53:54;;;;;;;0.43;0.43;;;12.20;99.90;;;;;;5007594;28;20040;-72
2023/07/25 00:56:20;;;;;;;0.50;0.50;;;12.20;99.90;;;;;;4995960;28;20136;-71
2023/07/25 00:58:46;;;;;;;0.50;0.50;;;12.30;99.90;;;;;;5012809;28;20412;-73
2023/07/25 01:01:12;;;;;;;0.50;0.50;;;12.20;99.90;;;;;;5011426;28;20037;-72
2023/07/25 01:03:39;;;;;;;0.57;0.57;;;12.30;99.90;;;;;;5010961;28;20471;-72
2023/07/25 01:06:10;;;;;;;0.52;0.52;;;12.30;99.90;;;;;;5012582;28;20052;-72
2023/07/25 01:08:47;;;;;;;0.40;0.40;;;12.10;99.90;;;;;;5012110;28;20045;-72
2023/07/25 01:11:13;;;;;;;0.40;0.40;;;12.10;99.90;;;;;;5007812;28;20394;-72
2023/07/25 01:13:39;;;;;;;0.30;0.30;;;12.20;99.90;;;;;;5012296;28;20160;-72
2023/07/25 01:16:05;;;;;;;0.40;0.40;;;11.90;99.90;;;;;;5011883;28;20033;-71
2023/07/25 01:18:31;;;;;;;0.28;0.28;;;12.10;99.90;;;;;;5009904;28;20048;-71
2023/07/25 01:20:57;;;;;;;0.50;0.50;;;11.90;99.90;;;;;;5011865;28;20045;-72
2023/07/25 01:23:24;;;;;;;0.40;0.40;;;11.80;99.90;;;;;;5012043;28;20063;-71
2023/07/25 01:25:50;;;;;;;0.43;0.43;;;11.90;99.90;;;;;;4992893;28;20062;-72
2023/07/25 01:28:16;;;;;;;0.50;0.50;;;11.80;99.90;;;;;;4993083;28;20046;-71
2023/07/25 01:30:41;;;;;;;0.47;0.47;;;11.80;99.90;;;;;;5012009;28;20049;-74
2023/07/25 01:33:07;;;;;;;0.30;0.30;;;11.70;99.90;;;;;;5011785;28;20049;-72
2023/07/25 01:35:33;;;;;;;0.40;0.40;;;11.70;99.90;;;;;;5011461;28;20045;-72
2023/07/25 01:37:58;;;;;;;0.40;0.40;;;11.80;99.90;;;;;;5009509;28;20322;-71
2023/07/25 01:40:24;;;;;;;0.40;0.40;;;11.70;99.90;;;;;;4989806;28;20072;-72
2023/07/25 01:42:49;;;;;;;0.60;0.60;;;11.70;99.90;;;;;;5000669;28;20069;-71
2023/07/25 01:45:15;;;;;;;0.57;0.57;;;11.60;99.90;;;;;;5007478;28;20041;-72
2023/07/25 01:47:41;;;;;;;0.70;0.70;;;11.80;99.90;;;;;;4990428;28;20121;-71
2023/07/25 01:50:06;;;;;;;0.43;0.43;;;11.70;99.90;;;;;;5006388;28;20120;-73
2023/07/25 01:52:32;;;;;;;0.35;0.35;;;11.70;99.90;;;;;;4990713;28;20045;-72
2023/07/25 01:54:58;;;;;;;0.50;0.50;;;11.70;99.90;;;;;;5005908;28;20474;-72
2023/07/25 01:57:23;;;;;;;0.52;0.52;;;11.70;99.90;;;;;;5003276;28;20040;-72
2023/07/25 01:59:49;;;;;;;0.45;0.45;;;11.70;99.90;;;;;;5003952;28;20129;-72
2023/07/25 02:02:15;;;;;;;0.38;0.38;;;11.50;99.90;;;;;;5007507;28;20035;-71
2023/07/25 02:04:40;;;;;;;0.50;0.50;;;11.70;99.90;;;;;;5008395;28;20096;-72
2023/07/25 02:07:06;;;;;;;0.40;0.40;;;11.50;99.90;;;;;;5003109;28;20046;-74
2023/07/25 02:09:32;;;;;;;0.50;0.50;;;11.60;99.90;;;;;;5008483;28;20853;-71
2023/07/25 02:11:58;;;;;;;0.50;0.50;;;11.60;99.90;;;;;;5006978;28;20046;-75
2023/07/25 02:14:24;;;;;;;0.40;0.40;;;11.50;99.90;;;;;;5004313;28;20042;-72
2023/07/25 02:16:50;;;;;;;0.73;0.73;;;11.50;99.90;;;;;;5007362;28;20103;-71
2023/07/25 02:19:15;;;;;;;0.50;0.50;;;11.40;99.90;;;;;;5006875;28;20034;-72
2023/07/25 02:21:41;;;;;;;0.32;0.32;;;11.40;99.90;;;;;;5007791;28;20041;-72
2023/07/25 02:24:06;;;;;;;0.40;0.40;;;11.50;99.90;;;;;;5007772;28;20034;-72
2023/07/25 02:26:32;;;;;;;0.63;0.63;;;11.50;99.90;;;;;;4990915;28;20037;-71
2023/07/25 02:28:58;;;;;;;0.40;0.40;;;11.40;99.90;;;;;;5007062;28;20038;-73
2023/07/25 02:31:23;;;;;;;0.50;0.50;;;11.50;99.90;;;;;;5003814;28;20505;-72
2023/07/25 02:33:49;;;;;;;0.40;0.40;;;11.40;99.90;;;;;;5007680;28;20037;-72
2023/07/25 02:36:15;;;;;;;0.40;0.40;;;11.40;99.90;;;;;;5007153;28;20045;-72
2023/07/25 02:38:40;;;;;;;0.40;0.40;;;11.50;99.90;;;;;;5008145;28;20504;-72
2023/07/25 02:41:06;;;;;;;0.43;0.43;;;11.70;99.90;;;;;;5007896;28;20768;-73
2023/07/25 02:43:32;;;;;;;0.63;0.63;;;11.40;99.90;;;;;;4990186;28;20058;-72
2023/07/25 02:45:57;;;;;;;0.40;0.40;;;11.40;99.90;;;;;;5007454;28;20053;-72
2023/07/25 02:48:23;;;;;;;0.40;0.40;;;11.70;99.90;;;;;;5001934;28;20110;-72
2023/07/25 02:50:49;;;;;;;0.52;0.52;;;11.60;99.90;;;;;;5004779;28;20344;-75
2023/07/25 02:53:14;;;;;;;0.40;0.40;;;11.50;99.90;;;;;;4997325;28;20077;-72
2023/07/25 02:55:40;;;;;;;0.40;0.40;;;11.60;99.90;;;;;;4982776;28;20053;-72
2023/07/25 02:58:06;;;;;;;0.50;0.50;;;11.60;99.90;;;;;;5006467;28;20037;-72
2023/07/25 03:00:31;;;;;;;0.38;0.38;;;11.60;99.90;;;;;;5006538;28;20457;-72
2023/07/25 03:02:57;;;;;;;0.40;0.40;;;11.60;99.90;;;;;;5005353;28;20413;-72
2023/07/25 03:05:22;;;;;;;0.40;0.40;;;11.70;99.90;;;;;;5006695;28;20079;-71
2023/07/25 03:07:48;;;;;;;0.63;0.63;;;11.70;99.90;;;;;;4994971;28;20041;-72
2023/07/25 03:10:15;;;;;;;0.50;0.50;;;11.90;99.90;;;;;;5005223;28;20550;-72
2023/07/25 03:12:40;;;;;;;0.30;0.30;;;11.80;99.90;;;;;;5006937;28;20038;-72
2023/07/25 03:15:06;;;;;;;0.40;0.40;;;11.70;99.90;;;;;;5006660;28;20307;-72
2023/07/25 03:17:32;;;;;;;0.57;0.57;;;11.70;99.90;;;;;;5007003;28;20038;-73
2023/07/25 03:19:58;;;;;;;0.32;0.32;;;11.80;99.90;;;;;;5006852;28;20038;-72
2023/07/25 03:22:23;;;;;;;0.55;0.55;;;11.70;99.90;;;;;;5005758;28;20040;-72
2023/07/25 03:24:49;;;;;;;0.30;0.30;;;11.90;99.90;;;;;;4996265;28;20040;-72
2023/07/25 03:27:16;;;;;;;0.52;0.52;;;11.70;99.90;;;;;;5004820;28;20042;-72
2023/07/25 03:29:42;;;;;;;0.40;0.40;;;11.60;99.90;;;;;;5004814;28;20397;-71
2023/07/25 03:32:08;;;;;;;0.73;0.73;;;11.80;99.90;;;;;;5006956;28;20045;-72
2023/07/25 03:34:34;;;;;;;0.40;0.40;;;11.60;99.90;;;;;;5002448;28;20551;-72
2023/07/25 03:36:59;;;;;;;0.40;0.40;;;11.60;99.90;;;;;;5006927;28;20104;-71
2023/07/25 03:39:25;;;;;;;0.40;0.40;;;11.60;99.90;;;;;;5009163;28;20129;-73
2023/07/25 03:41:51;;;;;;;0.40;0.40;;;11.60;99.90;;;;;;5012418;28;20077;-71
2023/07/25 03:44:17;;;;;;;0.40;0.40;;;11.50;99.90;;;;;;5005803;28;20184;-72
2023/07/25 03:46:44;;;;;;;0.40;0.40;;;11.50;99.90;;;;;;5013947;28;20041;-72
2023/07/25 03:49:10;;;;;;;0.30;0.30;;;11.50;99.90;;;;;;5012959;28;20064;-72
2023/07/25 03:51:36;;;;;;;0.40;0.40;;;11.60;99.90;;;;;;4994098;28;20049;-72
2023/07/25 03:54:11;;;;;;;0.40;0.40;;;11.60;99.90;;;;;;5005629;28;20797;-72
2023/07/25 03:56:37;;;;;;;0.50;0.40;;;11.50;99.90;;;;;;5015185;28;20048;-72
2023/07/25 03:59:03;;;;;;;0.32;0.32;;;11.50;99.90;;;;;;5007430;28;20034;-72
2023/07/25 04:01:30;;;;;;;0.40;0.40;;;11.50;99.90;;;;;;5004389;28;20478;-72
2023/07/25 04:03:56;;;;;;;0.40;0.40;;;11.70;99.90;;;;;;5004918;28;20045;-74
2023/07/25 04:06:22;;;;;;;0.45;0.45;;;11.70;99.90;;;;;;5008119;28;20436;-72
2023/07/25 04:08:47;;;;;;;0.30;0.30;;;11.60;99.90;;;;;;5006519;28;20128;-71
2023/07/25 04:11:13;;;;;;;0.40;0.40;;;11.80;99.90;;;;;;5008840;28;20241;-72
2023/07/25 04:13:40;;;;;;;0.40;0.40;;;11.80;99.90;;;;;;5001990;28;20037;-72
2023/07/25 04:16:06;;;;;;;0.60;0.60;;;11.80;99.90;;;;;;5006001;28;20112;-75
2023/07/25 04:18:31;;;;;;;0.30;0.30;;;11.80;99.90;;;;;;5013210;28;20397;-72
2023/07/25 04:20:57;;;;;;;0.50;0.50;;;11.80;99.90;;;;;;5004470;28;20485;-72
2023/07/25 04:23:23;;;;;;;0.40;0.40;;;11.80;99.90;;;;;;5012255;28;20030;-72
2023/07/25 04:25:49;;;;;;;0.47;0.47;;;11.90;99.90;;;;;;5013202;28;20518;-72
2023/07/25 04:28:15;;;;;;;0.75;0.75;;;12.10;99.90;;;;;;4987707;28;20038;-72
2023/07/25 04:30:42;;;;;;;0.43;0.43;;;12.20;99.90;;;;;;5011628;28;20052;-72
2023/07/25 04:33:07;;;;;;;0.40;0.40;;;12.00;99.90;;;;;;5011681;28;20041;-72
2023/07/25 04:35:33;;;;;;;0.43;0.43;;;12.10;99.90;;;;;;5010212;28;20095;-72
2023/07/25 04:37:59;;;;;;;0.38;0.38;;;12.30;99.90;;;;;;5012998;28;20042;-72
2023/07/25 04:40:25;;;;;;;0.30;0.30;;;12.10;99.90;;;;;;4995569;28;20048;-72
2023/07/25 04:42:51;;;;;;;0.40;0.40;;;12.20;99.90;;;;;;5010223;28;20076;-72
2023/07/25 04:45:17;;;;;;;0.40;0.40;;;12.30;99.90;;;;;;4994966;28;20087;-75
2023/07/25 04:47:43;;;;;;;0.30;0.30;;;12.30;99.90;;;;;;5011323;28;20650;-72
2023/07/25 04:50:09;;;;;;;0.40;0.40;;;12.50;99.90;;;;;;5011531;28;20040;-72
2023/07/25 04:52:35;;;;;;;1.40;0.95;;;12.60;99.90;;;;;;4996124;28;20045;-72
2023/07/25 04:55:00;;;;;;;0.40;0.40;;;12.70;99.90;;;;;;5012590;28;20037;-72
2023/07/25 04:57:26;;;;;;;0.40;0.40;;;12.60;99.90;;;;;;5010758;28;20944;-72
2023/07/25 04:59:53;;;;;;;0.40;0.40;;;12.60;99.90;;;;;;5009334;28;20088;-73
2023/07/25 05:02:22;;;;;;;0.40;0.40;;;12.60;99.90;;;;;;5014178;28;20033;-72
2023/07/25 05:04:47;;;;;;;0.40;0.40;;;12.60;99.90;;;;;;5012291;28;20064;-72
2023/07/25 05:07:14;;;;;;;0.40;0.40;;;12.70;99.90;;;;;;5011616;28;20578;-72
2023/07/25 05:09:40;;;;;;;0.60;0.60;;;13.10;99.90;;;;;;5007782;28;20049;-72
2023/07/25 05:12:10;;;;;;;0.50;0.50;;;13.00;99.90;;;;;;5010538;28;20132;-72
2023/07/25 05:14:36;;;;;;;0.47;0.47;;;12.90;99.90;;;;;;5011483;28;20128;-72
2023/07/25 05:17:01;;;;;;;0.43;0.43;;;12.90;99.90;;;;;;5012228;28;20557;-72
2023/07/25 05:19:27;;;;;;;0.40;0.40;;;13.10;99.90;;;;;;5012451;28;20107;-71
2023/07/25 05:21:53;;;;;;;0.40;0.40;;;13.00;99.90;;;;;;5006961;28;20133;-71
2023/07/25 05:24:18;;;;;;;0.50;0.50;;;13.10;99.90;;;;;;5008604;28;20050;-71
2023/07/25 05:26:44;;;;;;;0.40;0.40;;;13.20;99.90;;;;;;5009878;28;20121;-72
2023/07/25 05:29:10;;;;;;;0.40;0.40;;;13.30;99.90;;;;;;5007586;28;20080;-71
2023/07/25 05:31:35;;;;;;;0.40;0.40;;;13.30;99.90;;;;;;4995539;28;20222;-72
2023/07/25 05:34:01;;;;;;;0.40;0.40;;;13.30;99.90;;;;;;5007776;28;20049;-71
2023/07/25 05:36:26;;;;;;;0.30;0.30;;;13.60;99.90;;;;;;5011049;28;20065;-72
2023/07/25 05:38:52;;;;;;;0.40;0.40;;;13.30;99.90;;;;;;5011556;28;20042;-72
2023/07/25 05:41:18;;;;;;;0.40;0.40;;;13.40;99.90;;;;;;5013208;28;20424;-71
2023/07/25 05:43:44;;;;;;;0.50;0.50;;;13.70;99.90;;;;;;5007933;28;20129;-72
2023/07/25 05:46:10;;;;;;;0.63;0.63;;;13.50;99.90;;;;;;4988234;28;20045;-72
2023/07/25 05:48:35;;;;;;;0.40;0.40;;;13.40;99.90;;;;;;4988462;28;20053;-71
2023/07/25 05:51:01;;;;;;;0.43;0.43;;;13.60;99.90;;;;;;5007922;28;20030;-71
2023/07/25 05:53:26;;;;;;;0.40;0.40;;;13.50;99.90;;;;;;5005868;28;20037;-71
2023/07/25 05:55:52;;;;;;;0.50;0.50;;;13.80;99.90;;;;;;5005200;28;20048;-71
2023/07/25 05:58:19;;;;;;;0.40;0.40;;;13.80;99.90;;;;;;5001969;28;20088;-71
2023/07/25 06:00:46;;;;;;;0.40;0.40;;;;;;;;;;5006493;28;20073;-71
2023/07/25 06:03:13;;;;;;;0.40;0.40;;;13.70;99.90;;;;;;5006299;28;20037;-70
2023/07/25 06:05:39;;;;;;;0.40;0.40;;;13.70;99.90;;;;;;5004789;28;20447;-71
2023/07/25 06:08:05;;;;;;;0.60;0.60;;;13.90;99.90;;;;;;5006968;28;20045;-71
2023/07/25 06:10:31;;;;;;;0.40;0.40;;;14.20;99.90;;;;;;4987882;28;20042;-71
2023/07/25 06:15:58;;;;;;;0.98;0.50;;;14.40;99.90;;;;;;5138910;22;20048;-71
2023/07/25 06:18:23;;;;;;;0.40;0.40;;;14.30;99.90;;;;;;5034974;28;20495;-72
2023/07/25 06:20:49;;;;;;;0.40;0.40;;;14.40;99.90;;;;;;5043650;28;20043;-70
2023/07/25 06:23:15;;;;;;;0.40;0.40;;;14.20;99.90;;;;;;5048105;28;20105;-71
2023/07/25 06:25:40;;;;;;;0.80;0.80;;;14.20;99.90;;;;;;5042967;28;20041;-71
2023/07/25 06:28:06;;;;;;;0.40;0.40;;;14.20;99.90;;;;;;5045070;28;21581;-72
2023/07/25 06:30:32;;;;;;;0.30;0.30;;;14.50;99.90;;;;;;5044989;28;20491;-71
2023/07/25 06:32:58;;;;;;;0.65;0.65;;;14.20;99.90;;;;;;5049338;28;20055;-71
2023/07/25 06:35:23;;;;;;;0.40;0.40;;;14.50;99.90;;;;;;5035411;28;20127;-72
2023/07/25 06:37:49;;;;;;;0.43;0.43;;;14.60;99.90;;;;;;5049271;28;20539;-72
2023/07/25 06:40:15;;;;;;;0.50;0.50;;;14.60;99.90;;;;;;5039304;28;20075;-71
2023/07/25 06:45:59;;;;;;;0.80;0.55;;;14.90;99.90;;;;;;5079981;22;20520;-71
2023/07/25 06:48:24;;;;;;;0.40;0.40;;;14.90;99.90;;;;;;5043301;28;20079;-68
2023/07/25 06:50:50;;;;;;;0.63;0.47;;;15.20;99.90;;;;;;5079810;28;20075;-70
2023/07/25 06:53:16;;;;;;;0.30;0.30;;;15.50;99.90;;;;;;5080587;28;20182;-70
2023/07/25 06:55:41;;;;;;;0.40;0.40;;;15.70;99.90;;;;;;5055256;28;20044;-70
2023/07/25 06:58:07;;;;;;;0.40;0.40;;;15.60;99.90;;;;;;5062241;28;20024;-73
2023/07/25 07:00:39;;;;;;;0.60;0.60;;;15.60;99.90;;;;;;5035878;28;20464;-70
2023/07/25 07:03:05;;;;;;;0.45;0.45;;;15.90;99.90;;;;;;5062507;28;20056;-70
2023/07/25 07:05:34;;;;;;;0.70;0.70;;;16.30;99.90;;;;;;5046629;28;20641;-70
2023/07/25 07:08:00;;;;;;;0.30;0.30;;;16.40;99.90;;;;;;5049478;28;20049;-68
2023/07/25 07:10:26;;;;;;;0.45;0.45;;;16.50;99.90;;;;;;5059927;28;20047;-70
2023/07/25 07:12:53;;;;;;;0.47;0.47;;;17.10;99.90;;;;;;5059665;28;20400;-70
2023/07/25 07:15:24;;;;;;;0.75;0.75;;;17.40;99.90;;;;;;5036471;28;20094;-70
2023/07/25 07:17:53;;;;;;;0.57;0.57;;;17.50;99.90;;;;;;5059524;28;20040;-70
2023/07/25 07:20:19;;;;;;;0.43;0.43;;;17.30;99.90;;;;;;5043905;28;20033;-70
2023/07/25 07:22:45;;;;;;;0.40;0.40;;;17.50;99.90;;;;;;5055730;28;20454;-70
2023/07/25 07:25:11;;;;;;;0.40;0.40;;;17.70;99.90;;;;;;5063724;28;20094;-73
2023/07/25 07:27:36;;;;;;;0.30;0.30;;;17.80;99.90;;;;;;5045556;28;20041;-70
2023/07/25 07:30:03;;;;;;;0.40;0.40;;;18.10;99.90;;;;;;5059913;28;20040;-70
2023/07/25 07:32:28;;;;;;;0.35;0.35;;;18.30;99.90;;;;;;5061463;28;20071;-70
2023/07/25 07:34:54;;;;;;;0.40;0.40;;;18.50;99.90;;;;;;5058916;28;20083;-71
2023/07/25 07:37:20;;;;;;;0.57;0.57;;;18.80;99.90;;;;;;5056517;28;20408;-70
2023/07/25 07:39:46;;;;;;;0.35;0.35;;;18.80;99.90;;;;;;5056848;28;20040;-70
2023/07/25 07:42:58;;;;;;;0.65;0.65;;;18.90;99.90;;;;;;5063765;28;20539;-72
2023/07/25 07:45:25;;;;;;;0.40;0.40;;;19.40;99.90;;;;;;5054821;28;20053;-70
2023/07/25 07:47:51;;;;;;;0.65;0.40;;;19.30;99.90;;;;;;5050623;28;20053;-70
2023/07/25 07:50:17;;;;;;;0.50;0.50;;;19.20;99.90;;;;;;5038537;28;20040;-71
2023/07/25 07:52:43;;;;;;;0.30;0.30;;;19.50;99.90;;;;;;5060152;28;20052;-69
2023/07/25 07:55:10;;;;;;;0.60;0.60;;;19.90;99.90;;;;;;5053300;28;20397;-68
2023/07/25 07:57:41;;;;;;;0.40;0.40;;;20.00;99.90;;;;;;5052401;28;20403;-69
2023/07/25 08:00:08;;;;;;;0.40;0.40;;;19.90;99.90;;;;;;5062813;28;20040;-72
2023/07/25 08:02:34;;;;;;;0.40;0.40;;;20.00;99.90;;;;;;5050474;28;20044;-70
2023/07/25 08:04:59;;;;;;;0.38;0.38;;;20.10;99.90;;;;;;5066139;28;20036;-71
2023/07/25 08:07:25;;;;;;;0.40;0.40;;;20.30;99.90;;;;;;5057152;28;20067;-74
2023/07/25 08:09:54;;;;;;;0.30;0.30;;;20.60;99.90;;;;;;5043492;28;20033;-71
2023/07/25 08:12:21;;;;;;;0.30;0.30;;;20.70;99.90;;;;;;5053106;28;20069;-71
2023/07/25 08:14:47;;;;;;;0.57;0.57;;;20.70;99.90;;;;;;5060896;28;20044;-71
2023/07/25 08:17:13;;;;;;;1.27;0.55;;;20.90;99.90;;;;;;5059391;28;20040;-73
2023/07/25 08:19:39;;;;;;;0.45;0.45;;;21.10;99.90;;;;;;5065670;28;20036;-71
2023/07/25 08:22:05;;;;;;;0.40;0.40;;;21.30;99.90;;;;;;5054210;28;20403;-70
2023/07/25 08:24:34;;;;;;;0.30;0.30;;;21.30;99.90;;;;;;5057033;28;20040;-71
2023/07/25 08:27:00;;;;;;;0.30;0.30;;;21.30;99.90;;;;;;5069253;28;20034;-71
2023/07/25 08:29:26;;;;;;;0.30;0.30;;;21.20;99.90;;;;;;5052121;28;20028;-71
2023/07/25 08:31:52;;;;;;;0.35;0.35;;;21.10;99.90;;;;;;5043334;28;20039;-71
2023/07/25 08:34:18;;;;;;;0.50;0.50;;;21.50;99.90;;;;;;5063447;28;20072;-72
2023/07/25 08:36:44;;;;;;;0.63;0.50;;;21.70;99.90;;;;;;5059325;28;20066;-71
2023/07/25 08:39:10;;;;;;;0.50;0.50;;;21.80;99.90;;;;;;5065743;28;20462;-71
2023/07/25 08:41:39;;;;;;;0.30;0.30;;;21.60;99.90;;;;;;5063464;28;21371;-72
2023/07/25 08:44:09;;;;;;;0.30;0.30;;;21.80;99.90;;;;;;5069070;28;20044;-72
2023/07/25 08:46:36;;;;;;;0.40;0.40;;;21.80;99.90;;;;;;5069047;28;20076;-72
2023/07/25 08:49:03;;;;;;;0.30;0.30;;;21.60;99.90;;;;;;5068499;28;20064;-72
2023/07/25 08:51:34;;;;;;;0.35;0.35;;;21.50;99.90;;;;;;5063322;28;20551;-73
2023/07/25 08:54:10;;;;;;;0.38;0.38;;;21.60;99.90;;;;;;5059653;28;20067;-72
2023/07/25 08:56:38;;;;;;;0.40;0.40;;;21.60;99.90;;;;;;5062274;28;20530;-74
2023/07/25 08:59:05;;;;;;;0.40;0.40;;;21.60;99.90;;;;;;5067761;28;20085;-72
2023/07/25 09:01:32;;;;;;;0.30;0.30;;;21.60;99.90;;;;;;5069015;28;20049;-71
2023/07/25 09:04:00;;;;;;;0.30;0.30;;;21.40;99.90;;;;;;5065497;28;20045;-71
2023/07/25 09:06:26;;;;;;;0.40;0.40;;;21.60;99.90;;;;;;5068907;28;20487;-71
2023/07/25 09:08:53;;;;;;;0.47;0.47;;;21.70;99.90;;;;;;5066420;28;20045;-71
2023/07/25 09:11:20;;;;;;;0.30;0.30;;;21.70;99.90;;;;;;5064831;28;20066;-71
2023/07/25 09:13:48;;;;;;;0.50;0.50;;;21.80;99.90;;;;;;5047475;28;20051;-71
2023/07/25 09:16:14;;;;;;;0.65;0.65;;;21.80;99.90;;;;;;5061041;28;20069;-71
2023/07/25 09:18:40;;;;;;;0.73;0.73;;;22.00;99.90;;;;;;5063711;28;20036;-71
2023/07/25 09:21:06;;;;;;;0.30;0.30;;;22.10;99.90;;;;;;5064449;28;20033;-71
2023/07/25 09:23:32;;;;;;;0.30;0.30;;;22.30;99.90;;;;;;5046127;28;20833;-72
2023/07/25 09:26:06;;;;;;;0.30;0.30;;;22.30;99.90;;;;;;5058338;28;20037;-71
2023/07/25 09:28:32;;;;;;;0.32;0.32;;;22.30;99.90;;;;;;5050144;28;20052;-71
2023/07/25 09:31:04;;;;;;;0.30;0.30;;;22.30;99.90;;;;;;5060677;28;20090;-71
2023/07/25 09:33:30;;;;;;;0.40;0.40;;;22.60;99.90;;;;;;5064495;28;20052;-79
2023/07/25 09:35:57;;;;;;;0.30;0.30;;;22.70;99.90;;;;;;5049007;28;20119;-71
2023/07/25 09:38:22;;;;;;;0.47;0.47;;;22.90;99.90;;;;;;5049310;28;20434;-71
2023/07/25 09:40:48;;;;;;;0.38;0.38;;;23.10;99.90;;;;;;5064232;28;20040;-71
2023/07/25 09:43:29;;;;;;;0.40;0.40;;;23.20;99.90;;;;;;5046399;28;20479;-71
2023/07/25 09:45:55;;;;;;;0.30;0.30;;;23.50;99.90;;;;;;5053785;28;20654;-71
2023/07/25 09:48:22;;;;;;;0.30;0.30;;;23.50;99.90;;;;;;5064597;28;20097;-71
2023/07/25 09:50:48;;;;;;;0.55;0.55;;;23.60;99.90;;;;;;5066472;28;20036;-71
2023/07/25 09:53:17;;;;;;;0.80;0.40;;;23.50;99.90;;;;;;5059950;28;20074;-71
2023/07/25 09:55:45;;;;;;;0.43;0.43;;;23.50;99.90;;;;;;5057865;28;20124;-71
2023/07/25 09:58:11;;;;;;;0.40;0.40;;;23.30;99.90;;;;;;5061825;28;20474;-74
2023/07/25 10:00:37;;;;;;;0.40;0.40;;;23.40;99.90;;;;;;5067909;28;20506;-72
2023/07/25 10:03:03;;;;;;;0.35;0.35;;;23.70;99.90;;;;;;5069324;28;20040;-72
2023/07/25 10:05:29;;;;;;;0.40;0.40;;;24.00;99.90;;;;;;5058275;28;20048;-71
2023/07/25 10:08:00;;;;;;;0.45;0.45;;;24.20;99.90;;;;;;5062595;28;20045;-71
2023/07/25 10:10:26;;;;;;;0.30;0.30;;;24.00;99.90;;;;;;5051081;28;20096;-74
2023/07/25 10:12:53;;;;;;;0.40;0.40;;;23.90;99.90;;;;;;5062578;28;20041;-72
2023/07/25 10:15:20;;;;;;;0.30;0.30;;;23.70;99.90;;;;;;5065289;28;20051;-73
2023/07/25 10:17:46;;;;;;;0.40;0.40;;;23.60;99.90;;;;;;5048877;28;20048;-76
2023/07/25 10:20:22;;;;;;;0.30;0.30;;;23.50;99.90;;;;;;5036802;28;20040;-71
2023/07/25 10:22:48;;;;;;;0.38;0.38;;;23.50;99.90;;;;;;5048124;28;20532;-72
2023/07/25 10:25:26;;;;;;;0.40;0.40;;;23.50;99.90;;;;;;5043013;28;20072;-72
2023/07/25 10:27:58;;;;;;;0.30;0.30;;;23.80;99.90;;;;;;5049736;28;20040;-72
2023/07/25 10:30:26;;;;;;;0.30;0.30;;;24.00;99.90;;;;;;5054288;28;20101;-72
2023/07/25 10:32:54;;;;;;;0.40;0.40;;;24.10;99.90;;;;;;5054484;28;20037;-72
2023/07/25 10:35:40;;;;;;;0.30;0.30;;;24.20;99.90;;;;;;5046622;28;20052;-71
2023/07/25 10:38:10;;;;;;;0.35;0.35;;;24.10;99.90;;;;;;5062954;28;20373;-71
2023/07/25 10:40:54;;;;;;;0.35;0.35;;;24.20;99.90;;;;;;5042829;28;20038;-70
2023/07/25 10:43:21;;;;;;;0.40;0.40;;;24.10;99.90;;;;;;5057095;28;20039;-71
2023/07/25 10:45:50;;;;;;;0.38;0.38;;;24.10;99.90;;;;;;5055333;28;20127;-71
2023/07/25 10:48:34;;;;;;;0.40;0.40;;;24.00;99.90;;;;;;5060950;28;20877;-72
2023/07/25 10:51:03;;;;;;;0.40;0.40;;;23.70;99.90;;;;;;5056540;28;20037;-71
2023/07/25 10:53:29;;;;;;;0.40;0.40;;;23.40;99.90;;;;;;5038536;28;20496;-72
2023/07/25 10:56:04;;;;;;;0.65;0.65;;;23.10;99.90;;;;;;5054896;28;20037;-74
2023/07/25 10:58:34;;;;;;;0.38;0.38;;;22.90;99.90;;;;;;5057066;28;20037;-74
2023/07/25 11:01:01;;;;;;;0.47;0.47;;;22.80;99.90;;;;;;5054517;28;20041;-74
2023/07/25 11:03:27;;;;;;;0.55;0.55;;;22.70;99.90;;;;;;5038888;28;20814;-72
2023/07/25 11:06:13;;;;;;;0.30;0.30;;;22.60;99.90;;;;;;5036416;28;20041;-74
2023/07/25 11:08:41;;;;;;;0.30;0.30;;;22.60;99.90;;;;;;5021637;28;20495;-74
2023/07/25 11:11:08;;;;;;;;;;;22.40;99.90;;;;;;5048551;28;20079;-72
2023/07/25 11:13:43;;;;;;;0.30;0.30;;;22.20;99.90;;;;;;5074454;28;19917;-74
2023/07/25 11:16:11;;;;;;;0.80;0.47;;;22.20;99.90;;;;;;5052979;28;20753;-74
2023/07/25 11:18:48;;;;;;;0.40;0.40;;;22.10;99.90;;;;;;5055893;28;20036;-74
2023/07/25 11:21:15;;;;;;;0.35;0.35;;;22.30;99.90;;;;;;5050709;28;20048;-74
2023/07/25 11:23:41;;;;;;;0.30;0.30;;;22.60;99.90;;;;;;5061585;28;20040;-74
2023/07/25 11:26:07;;;;;;;0.70;0.70;;;22.80;99.90;;;;;;5060299;28;20094;-74
2023/07/25 11:28:33;;;;;;;0.55;0.55;;;22.90;99.90;;;;;;5044117;28;20527;-73
2023/07/25 11:30:59;;;;;;;0.40;0.40;;;22.80;99.90;;;;;;5057726;28;20438;-74
2023/07/25 11:33:25;;;;;;;0.40;0.40;;;22.90;99.90;;;;;;5059014;28;20032;-74
2023/07/25 11:35:55;;;;;;;0.80;0.68;;;22.80;99.90;;;;;;5055003;28;20143;-75
2023/07/25 11:38:22;;;;;;;0.52;0.52;;;22.80;99.90;;;;;;5036888;28;20029;-75
2023/07/25 11:40:53;;;;;;;0.40;0.40;;;22.90;99.90;;;;;;5036004;28;20431;-74
2023/07/25 11:43:20;;;;;;;0.30;0.30;;;22.90;99.90;;;;;;5048218;28;20033;-74
2023/07/25 11:45:46;;;;;;;0.40;0.40;;;23.10;99.90;;;;;;5035708;28;20132;-74
2023/07/25 11:48:16;;;;;;;0.30;0.30;;;23.30;99.90;;;;;;5041510;28;20052;-73
2023/07/25 11:50:42;;;;;;;0.40;0.40;;;23.50;99.90;;;;;;5061676;28;20037;-75
2023/07/25 11:53:09;;;;;;;0.30;0.30;;;23.80;99.90;;;;;;5048659;28;20403;-73
2023/07/25 11:55:35;;;;;;;0.30;0.30;;;23.90;99.90;;;;;;5044386;28;20110;-75
2023/07/25 11:58:02;;;;;;;0.45;0.45;;;23.70;99.90;;;;;;5039460;28;20115;-75
2023/07/25 12:00:41;;;;;;;0.40;0.40;;;23.80;99.90;;;;;;5036850;28;20049;-75
2023/07/25 12:03:24;;;;;;;0.30;0.30;;;24.10;99.90;;;;;;5063597;28;20029;-74
2023/07/25 12:05:56;;;;;;;0.50;0.50;;;24.20;99.90;;;;;;5044759;28;20037;-74
2023/07/25 12:08:34;;;;;;;0.32;0.32;;;24.00;99.90;;;;;;5064439;28;20071;-74
2023/07/25 12:11:14;;;;;;;0.40;0.40;;;24.00;99.90;;;;;;5062816;28;20115;-74
2023/07/25 12:13:58;;;;;;;0.30;0.30;;;24.10;99.90;;;;;;5050358;28;20128;-74
2023/07/25 12:16:32;;;;;;;0.40;0.40;;;24.20;99.90;;;;;;5048252;28;20091;-74
2023/07/25 12:19:09;;;;;;;0.50;0.50;;;24.00;99.90;;;;;;5053307;28;20086;-74
2023/07/25 12:21:36;;;;;;;0.40;0.40;;;24.10;99.90;;;;;;5055338;28;20438;-73
2023/07/25 12:24:04;;;;;;;;;;;24.00;99.90;;;;;;5039054;28;20072;-74
2023/07/25 12:26:57;;;;;;;0.38;0.38;;;24.00;99.90;;;;;;5039585;28;20313;-74
2023/07/25 12:29:27;;;;;;;0.30;0.30;;;24.20;99.90;;;;;;5061906;28;20483;-74
2023/07/25 12:31:54;;;;;;;0.77;0.77;;;24.00;99.90;;;;;;5054111;28;20083;-74
2023/07/25 12:34:20;;;;;;;0.30;0.30;;;23.90;99.90;;;;;;5063245;28;20070;-74
2023/07/25 12:36:51;;;;;;;0.47;0.47;;;23.90;99.90;;;;;;5044992;28;20036;-73
2023/07/25 12:39:17;;;;;;;0.40;0.40;;;23.90;99.90;;;;;;5067293;28;20037;-73
2023/07/25 12:41:43;;;;;;;0.40;0.40;;;23.80;99.90;;;;;;5052222;28;20055;-72
2023/07/25 12:44:10;;;;;;;0.57;0.57;;;23.80;99.90;;;;;;5036890;28;20048;-73
2023/07/25 12:46:39;;;;;;;0.40;0.40;;;23.80;99.90;;;;;;5056207;28;20060;-73
2023/07/25 12:49:23;;;;;;;0.22;0.22;;;24.00;99.90;;;;;;5062591;28;20522;-72
2023/07/25 12:51:49;;;;;;;0.30;0.30;;;23.90;99.90;;;;;;5062742;28;20124;-73
2023/07/25 12:54:15;;;;;;;0.30;0.30;;;23.90;99.90;;;;;;5051949;28;20123;-72